Time;durP1;ratioP1;P1;durP2;ratioP2;P2;SDS_P1;SDS_P2;PMS_P1;PMS_P2;Temp;Humidity;BMP_temperature;BMP_pressure;BME280_temperature;BME280_humidity;BME280_pressure;Samples;Min_cycle;Max_cycle;Signal;HPM_P1;HPM_P2
2021/08/24 00:00:11;;;;;;;4.78;4.10;;;;;;;17.37;89.16;96102.81;5033478;28;20673;-85
2021/08/24 00:02:37;;;;;;;3.97;3.67;;;;;;;17.35;90.10;96104.81;5033340;28;20202;-82
2021/08/24 00:05:06;;;;;;;5.00;4.25;;;;;;;17.26;91.54;96104.25;5032421;28;20233;-85
2021/08/24 00:07:32;;;;;;;4.43;4.13;;;;;;;17.27;90.94;96111.06;5033385;28;20206;-83
2021/08/24 00:09:59;;;;;;;3.92;3.63;;;;;;;17.25;91.58;96107.84;5033650;28;20229;-83
2021/08/24 00:12:25;;;;;;;4.10;3.80;;;;;;;17.28;89.98;96107.44;5032788;28;20225;-84
2021/08/24 00:14:53;;;;;;;3.95;3.65;;;;;;;17.27;90.61;96109.25;5032800;28;20233;-84
2021/08/24 00:17:20;;;;;;;4.25;3.63;;;;;;;17.25;91.44;96110.47;5033367;28;20681;-85
2021/08/24 00:19:46;;;;;;;4.57;3.95;;;;;;;17.21;91.35;96114.47;5033567;28;20209;-83
2021/08/24 00:22:14;;;;;;;3.63;3.38;;;;;;;17.26;90.51;96102.44;5034464;28;20213;-82
2021/08/24 00:24:41;;;;;;;3.50;3.20;;;;;;;17.35;90.05;96097.78;5033282;28;20214;-85
2021/08/24 00:27:07;;;;;;;4.95;3.53;;;;;;;17.39;89.39;96101.59;5033431;28;20620;-84
2021/08/24 00:29:34;;;;;;;3.00;2.72;;;;;;;17.30;88.83;96097.63;5034024;28;20218;-82
2021/08/24 00:32:01;;;;;;;3.10;2.90;;;;;;;17.26;90.32;96105.06;5033259;28;20209;-83
2021/08/24 00:34:28;;;;;;;3.05;2.75;;;;;;;17.17;90.18;96108.88;5033298;28;20590;-82
2021/08/24 00:36:54;;;;;;;2.70;2.50;;;;;;;17.09;90.51;96103.09;5033228;28;20205;-80
2021/08/24 00:39:21;;;;;;;2.58;2.38;;;;;;;17.16;90.25;96109.88;5033351;28;20202;-84
2021/08/24 00:41:47;;;;;;;2.90;2.65;;;;;;;17.05;89.45;96107.91;5033438;28;20554;-85
2021/08/24 00:44:14;;;;;;;2.60;2.50;;;;;;;17.01;88.36;96114.50;5033522;28;20688;-86
2021/08/24 00:46:44;;;;;;;2.80;2.60;;;;;;;16.92;89.36;96115.75;5033701;28;20610;-85
2021/08/24 00:49:16;;;;;;;2.20;2.10;;;;;;;16.93;90.57;96118.13;5032896;28;20708;-86
2021/08/24 00:51:45;;;;;;;3.85;2.58;;;;;;;16.93;90.36;96112.91;5033606;28;20234;-86
2021/08/24 00:54:15;;;;;;;2.40;2.20;;;;;;;16.91;89.68;96112.34;5033196;28;20233;-82
2021/08/24 00:56:46;;;;;;;2.60;2.40;;;;;;;16.88;90.61;96112.75;5033373;28;20213;-82
2021/08/24 00:59:12;;;;;;;3.38;2.15;;;;;;;16.95;90.49;96115.31;5033197;28;20202;-84
2021/08/24 01:01:39;;;;;;;1.90;1.80;;;;;;;16.86;90.19;96111.34;5033386;28;20209;-83
2021/08/24 01:04:06;;;;;;;2.28;2.10;;;;;;;16.87;90.39;96111.16;5032913;28;20211;-83
2021/08/24 01:06:41;;;;;;;2.38;2.08;;;;;;;16.88;91.30;96106.75;5032032;28;20241;-86
2021/08/24 01:09:22;;;;;;;3.22;2.03;;;;;;;16.89;89.61;96110.94;5033016;28;20692;-85
2021/08/24 01:11:57;;;;;;;2.00;1.90;;;;;;;16.96;89.48;96105.72;5032895;28;20608;-85
2021/08/24 01:14:31;;;;;;;2.25;1.90;;;;;;;17.04;88.84;96100.31;5033592;28;20782;-85
2021/08/24 01:17:03;;;;;;;1.70;1.60;;;;;;;17.02;89.17;96107.50;5033205;28;20221;-85
2021/08/24 01:20:00;;;;;;;1.85;1.75;;;;;;;17.00;89.11;96096.50;5033364;28;20202;-85
2021/08/24 01:23:01;;;;;;;3.22;1.98;;;;;;;17.10;87.19;96102.91;5026590;28;20209;-86
2021/08/24 01:25:34;;;;;;;3.15;2.00;;;;;;;16.97;88.17;96113.31;5011869;28;20230;-85
2021/08/24 01:28:05;;;;;;;2.50;2.10;;;;;;;16.93;88.17;96115.50;5013995;28;20205;-84
2021/08/24 01:30:48;;;;;;;1.83;1.73;;;;;;;16.89;88.17;96113.53;5014843;28;20609;-83
2021/08/24 01:33:28;;;;;;;2.20;1.95;;;;;;;16.89;88.00;96114.34;5034910;28;20243;-83
2021/08/24 01:36:15;;;;;;;2.10;1.90;;;;;;;16.92;87.57;96107.94;5036697;28;20232;-85
2021/08/24 01:38:49;;;;;;;2.33;2.17;;;;;;;16.72;88.49;96107.16;5037679;28;20220;-82
2021/08/24 01:41:22;;;;;;;1.88;1.77;;;;;;;16.71;89.03;96108.97;5037214;28;20205;-82
2021/08/24 01:43:57;;;;;;;1.80;1.70;;;;;;;16.66;89.21;96111.38;5036351;28;20198;-84
2021/08/24 01:46:31;;;;;;;2.65;1.50;;;;;;;16.62;89.91;96109.34;5036430;28;20266;-86
2021/08/24 01:49:01;;;;;;;1.77;1.67;;;;;;;16.64;90.39;96115.97;5036993;28;20295;-86
2021/08/24 01:51:34;;;;;;;1.70;1.60;;;;;;;16.66;89.20;96110.56;5035964;28;20209;-85
2021/08/24 01:54:04;;;;;;;1.75;1.60;;;;;;;16.56;89.71;96113.53;5036480;28;20583;-86
2021/08/24 01:56:37;;;;;;;1.70;1.60;;;;;;;16.47;91.60;96110.34;5036548;28;20295;-82
2021/08/24 01:59:08;;;;;;;1.90;1.80;;;;;;;16.51;90.40;96116.75;5035893;28;20206;-82
2021/08/24 02:01:40;;;;;;;1.92;1.80;;;;;;;16.50;89.58;96112.53;5036197;28;20202;-81
2021/08/24 02:04:13;;;;;;;1.50;1.40;;;;;;;16.55;89.71;96109.31;5036416;28;20209;-86
2021/08/24 02:06:45;;;;;;;2.35;1.50;;;;;;;16.53;89.35;96109.56;5035864;28;20221;-86
2021/08/24 02:09:17;;;;;;;2.08;1.77;;;;;;;16.48;89.21;96114.53;5036294;28;20566;-83
2021/08/24 02:11:45;;;;;;;1.90;1.70;;;;;;;16.47;87.70;96110.34;5035701;28;20233;-85
2021/08/24 02:14:15;;;;;;;1.80;1.70;;;;;;;16.51;89.01;96110.75;5034538;28;20209;-81
2021/08/24 02:16:44;;;;;;;1.52;1.42;;;;;;;16.63;87.82;96105.72;5034078;28;20647;-85
2021/08/24 02:19:16;;;;;;;1.70;1.60;;;;;;;16.65;87.36;96108.97;5034521;28;20209;-81
2021/08/24 02:21:50;;;;;;;1.70;1.60;;;;;;;16.61;86.92;96110.34;5035280;28;20206;-87
2021/08/24 02:24:21;;;;;;;1.70;1.60;;;;;;;16.57;86.66;96113.31;5033713;28;20198;-84
2021/08/24 02:26:50;;;;;;;1.90;1.80;;;;;;;16.53;86.88;96112.16;5034103;28;20206;-85
2021/08/24 02:29:17;;;;;;;1.85;1.70;;;;;;;16.46;87.65;96103.53;5034287;28;20608;-84
2021/08/24 02:31:47;;;;;;;1.52;1.42;;;;;;;16.52;87.40;96109.75;5034098;28;20705;-85
2021/08/24 02:34:23;;;;;;;1.75;1.60;;;;;;;16.54;87.02;96113.75;5033142;28;20202;-85
2021/08/24 02:36:56;;;;;;;1.73;1.63;;;;;;;16.48;87.25;96106.75;5034409;28;20198;-85
2021/08/24 02:39:28;;;;;;;3.85;1.90;;;;;;;16.44;86.81;96112.53;5033952;28;20206;-85
2021/08/24 02:41:59;;;;;;;2.95;1.65;;;;;;;16.34;88.28;96109.53;5033314;28;20198;-83
2021/08/24 02:44:35;;;;;;;1.73;1.63;;;;;;;16.44;87.60;96102.13;5033919;28;20226;-82
2021/08/24 02:47:04;;;;;;;3.55;1.95;;;;;;;16.49;87.08;96100.53;5034151;28;20201;-81
2021/08/24 02:49:33;;;;;;;1.80;1.70;;;;;;;16.45;86.64;96106.34;5033665;28;20198;-83
2021/08/24 02:52:06;;;;;;;2.38;2.17;;;;;;;16.39;87.00;96104.53;5033286;28;20221;-81
2021/08/24 02:54:36;;;;;;;2.17;1.70;;;;;;;16.34;87.74;96099.94;5033334;28;20218;-85
2021/08/24 02:57:04;;;;;;;7.15;2.03;;;;;;;16.41;87.50;96100.72;5033131;28;20681;-81
2021/08/24 02:59:31;;;;;;;2.10;1.67;;;;;;;16.46;87.79;96100.13;5033416;28;20194;-82
2021/08/24 03:01:58;;;;;;;1.80;1.70;;;;;;;16.49;86.21;96104.94;5033972;28;20197;-84
2021/08/24 03:04:25;;;;;;;2.65;2.20;;;;;;;16.39;86.29;96100.13;5033498;28;20205;-86
2021/08/24 03:06:57;;;;;;;1.80;1.70;;;;;;;16.40;86.18;96099.13;5033474;28;20230;-80
2021/08/24 03:09:28;;;;;;;2.20;2.00;;;;;;;16.37;85.97;96096.13;5033571;28;20221;-82
2021/08/24 03:12:00;;;;;;;1.77;1.67;;;;;;;16.37;85.59;96096.13;5033796;28;20198;-82
2021/08/24 03:14:29;;;;;;;2.33;2.13;;;;;;;16.35;85.57;96092.94;5033291;28;20318;-85
2021/08/24 03:17:01;;;;;;;4.72;2.00;;;;;;;16.27;85.72;96093.13;5034057;28;20237;-86
2021/08/24 03:19:32;;;;;;;1.98;1.88;;;;;;;16.29;86.30;96091.16;5033757;28;20209;-84
2021/08/24 03:22:00;;;;;;;2.97;2.15;;;;;;;16.42;84.99;96096.34;5033419;28;20213;-82
2021/08/24 03:24:29;;;;;;;2.28;2.10;;;;;;;16.41;85.39;96105.13;5033298;28;20218;-82
2021/08/24 03:26:56;;;;;;;2.67;1.92;;;;;;;16.39;85.69;96100.13;5033278;28;20202;-81
2021/08/24 03:29:23;;;;;;;3.92;1.77;;;;;;;16.39;85.65;96099.31;5033752;28;20740;-86
2021/08/24 03:31:52;;;;;;;2.47;1.98;;;;;;;16.44;84.69;96091.75;5033979;28;20190;-86
2021/08/24 03:34:21;;;;;;;3.05;1.90;;;;;;;16.47;84.44;96105.13;5033777;28;20205;-86
2021/08/24 03:36:47;;;;;;;2.85;2.10;;;;;;;16.45;84.22;96103.75;5033567;28;20206;-83
2021/08/24 03:39:14;;;;;;;2.88;1.90;;;;;;;16.52;84.17;96110.53;5033377;28;20682;-81
2021/08/24 03:41:42;;;;;;;2.22;2.03;;;;;;;16.43;84.66;96114.34;5033071;28;20203;-86
2021/08/24 03:44:09;;;;;;;2.58;2.38;;;;;;;16.32;85.36;96114.13;5032345;28;20209;-82
2021/08/24 03:46:35;;;;;;;2.28;2.00;;;;;;;16.39;84.84;96107.13;5033515;28;20202;-82
2021/08/24 03:49:02;;;;;;;2.30;2.10;;;;;;;16.34;85.48;96112.16;5032864;28;20213;-83
2021/08/24 03:51:28;;;;;;;2.35;2.08;;;;;;;16.28;85.79;96110.34;5032982;28;20701;-85
2021/08/24 03:53:55;;;;;;;3.28;2.20;;;;;;;16.24;86.60;96115.13;5032128;28;20238;-85
2021/08/24 03:56:21;;;;;;;2.33;2.13;;;;;;;16.21;86.22;96121.50;5028579;28;20570;-81
2021/08/24 03:58:49;;;;;;;2.13;1.92;;;;;;;16.17;87.06;96122.09;5033325;28;20202;-84
2021/08/24 04:01:18;;;;;;;2.10;1.90;;;;;;;16.18;85.12;96118.50;5032488;28;20696;-86
2021/08/24 04:03:45;;;;;;;2.80;2.35;;;;;;;16.16;86.21;96118.69;5031254;28;20206;-81
2021/08/24 04:06:12;;;;;;;4.00;2.17;;;;;;;16.14;85.28;96125.91;5030019;28;20237;-81
2021/08/24 04:08:39;;;;;;;2.70;2.50;;;;;;;16.09;86.08;96130.91;5030744;28;20209;-82
2021/08/24 04:11:07;;;;;;;3.03;2.22;;;;;;;16.12;86.54;96125.31;5030718;28;20233;-81
2021/08/24 04:13:33;;;;;;;4.25;2.22;;;;;;;16.11;86.54;96126.31;5030345;28;20218;-80
2021/08/24 04:16:06;;;;;;;3.28;2.13;;;;;;;16.18;84.53;96132.28;5030402;28;20229;-83
2021/08/24 04:18:32;;;;;;;2.70;2.40;;;;;;;16.20;85.16;96135.50;5030270;28;20225;-81
2021/08/24 04:21:03;;;;;;;2.58;2.38;;;;;;;16.17;85.20;96125.50;5031131;28;20202;-81
2021/08/24 04:23:29;;;;;;;3.35;2.67;;;;;;;16.15;85.16;96132.72;5030254;28;20194;-81
2021/08/24 04:25:57;;;;;;;2.55;2.35;;;;;;;16.18;85.63;96134.09;5030717;28;20249;-81
2021/08/24 04:28:23;;;;;;;3.03;2.58;;;;;;;16.30;83.53;96139.53;5030847;28;20717;-82
2021/08/24 04:30:50;;;;;;;3.95;2.60;;;;;;;16.20;84.21;96134.69;5030694;28;20206;-81
2021/08/24 04:33:22;;;;;;;4.05;2.75;;;;;;;16.27;83.36;96138.13;5030226;28;20725;-81
2021/08/24 04:35:50;;;;;;;3.10;2.80;;;;;;;16.33;83.80;96132.13;5031897;28;20305;-82
2021/08/24 04:38:16;;;;;;;3.25;2.70;;;;;;;16.27;84.37;96137.31;5036528;28;20208;-81
2021/08/24 04:40:43;;;;;;;3.05;2.85;;;;;;;16.23;85.48;96142.91;5035863;28;20198;-81
2021/08/24 04:43:10;;;;;;;5.75;3.13;;;;;;;16.27;84.84;96140.72;5033758;28;20205;-81
2021/08/24 04:45:36;;;;;;;5.40;3.47;;;;;;;16.12;85.34;96142.69;5034844;28;20222;-83
2021/08/24 04:48:03;;;;;;;5.43;2.88;;;;;;;16.11;85.11;96144.50;5037922;28;20579;-81
2021/08/24 04:50:31;;;;;;;3.92;3.53;;;;;;;16.20;85.10;96145.88;5035909;28;20637;-82
2021/08/24 04:52:57;;;;;;;12.48;9.73;;;;;;;16.18;85.12;96145.28;5030172;28;20229;-83
2021/08/24 04:55:24;;;;;;;4.28;3.50;;;;;;;16.09;86.89;96145.69;5042601;28;20221;-82
2021/08/24 04:57:50;;;;;;;7.40;3.50;;;;;;;16.05;87.61;96149.66;5035988;28;20202;-82
2021/08/24 05:00:18;;;;;;;3.53;2.70;;;;;;;16.13;87.16;96155.50;5045681;28;20206;-84
2021/08/24 05:02:44;;;;;;;6.13;3.05;;;;;;;16.24;85.36;96148.91;5032496;28;20202;-83
2021/08/24 05:05:11;;;;;;;3.85;3.20;;;;;;;16.16;84.51;96155.06;5027248;28;20240;-84
2021/08/24 05:07:39;;;;;;;4.10;3.42;;;;;;;16.12;85.18;96155.69;5025010;28;20582;-84
2021/08/24 05:10:07;;;;;;;3.53;3.15;;;;;;;16.08;86.01;96155.28;5015977;28;20742;-83
2021/08/24 05:12:33;;;;;;;3.92;3.38;;;;;;;16.14;85.98;96159.69;5015889;28;20199;-85
2021/08/24 05:15:00;;;;;;;4.88;3.28;;;;;;;16.23;84.98;96153.28;5015460;28;20218;-86
2021/08/24 05:17:26;;;;;;;4.53;2.90;;;;;;;16.19;85.94;96154.69;5015764;28;20206;-85
2021/08/24 05:19:53;;;;;;;3.05;2.85;;;;;;;16.26;84.69;96159.09;5016868;28;20860;-82
2021/08/24 05:22:19;;;;;;;5.47;3.42;;;;;;;16.28;85.19;96159.72;5035340;28;20212;-82
2021/08/24 05:24:47;;;;;;;4.72;3.90;;;;;;;16.28;84.72;96154.50;5034503;28;20217;-83
2021/08/24 05:27:17;;;;;;;4.85;3.22;;;;;;;16.33;83.95;96157.31;5035528;28;20206;-81
2021/08/24 05:29:44;;;;;;;3.83;3.35;;;;;;;16.23;84.71;96161.09;5017598;28;20195;-83
2021/08/24 05:32:10;;;;;;;4.00;3.33;;;;;;;16.17;85.52;96164.47;5022595;28;20587;-82
2021/08/24 05:34:37;;;;;;;3.53;3.22;;;;;;;16.10;85.80;96163.66;5034287;28;20249;-86
2021/08/24 05:37:05;;;;;;;5.40;3.50;;;;;;;16.10;86.67;96161.06;5034430;28;20202;-87
2021/08/24 05:39:32;;;;;;;5.93;3.45;;;;;;;16.04;88.11;96168.84;5047906;28;20206;-85
2021/08/24 05:42:00;;;;;;;3.78;3.28;;;;;;;16.00;88.36;96165.81;5054517;28;20205;-81
2021/08/24 05:44:27;;;;;;;7.30;3.80;;;;;;;16.02;87.96;96166.44;5029979;28;20210;-84
2021/08/24 05:46:53;;;;;;;4.22;3.83;;;;;;;16.02;87.69;96170.81;5032023;28;20209;-82
2021/08/24 05:49:20;;;;;;;4.55;3.67;;;;;;;16.02;87.79;96174.22;5035649;28;20202;-83
2021/08/24 05:51:46;;;;;;;6.18;3.97;;;;;;;16.13;87.59;96173.69;5033710;28;20213;-82
2021/08/24 05:54:13;;;;;;;3.97;3.50;;;;;;;16.18;86.67;96170.47;5052391;28;20227;-83
2021/08/24 05:56:42;;;;;;;4.07;3.67;;;;;;;16.21;86.86;96176.06;5054251;28;20210;-83
2021/08/24 05:59:10;;;;;;;4.07;3.67;;;;;;;16.29;86.49;96176.91;5054527;28;20198;-83
2021/08/24 06:01:36;;;;;;;4.75;3.85;;;;;;;16.29;86.75;96175.09;5054564;28;20205;-83
2021/08/24 06:04:04;;;;;;;3.60;3.30;;;;;;;16.45;85.69;96179.13;5040082;28;20190;-82
2021/08/24 06:06:32;;;;;;;3.88;3.47;;;;;;;16.52;84.85;96177.34;5023527;28;20226;-83
2021/08/24 06:08:59;;;;;;;5.75;3.72;;;;;;;16.45;84.91;96177.31;5034373;28;20844;-83
2021/08/24 06:11:33;;;;;;;5.50;3.40;;;;;;;16.52;85.17;96177.34;5046800;28;20202;-83
2021/08/24 06:14:03;;;;;;;4.63;4.07;;;;;;;16.46;84.37;96180.72;5050356;28;20206;-81
2021/08/24 06:16:31;;;;;;;4.45;4.05;;;;;;;16.46;85.91;96178.13;5021627;28;20264;-85
2021/08/24 06:18:58;;;;;;;4.40;3.85;;;;;;;16.40;85.61;96184.91;5034792;28;20709;-82
2021/08/24 06:21:25;;;;;;;4.70;4.30;;;;;;;16.41;86.34;96186.50;5036280;28;20244;-82
2021/08/24 06:23:55;;;;;;;6.25;4.07;;;;;;;16.34;85.70;96182.31;5036044;28;20194;-84
2021/08/24 06:26:22;;;;;;;5.05;3.45;;;;;;;16.37;86.81;96189.69;5034803;28;20943;-83
2021/08/24 06:28:49;;;;;;;5.68;4.25;;;;;;;16.42;85.89;96182.91;5028329;28;20289;-83
2021/08/24 06:31:24;;;;;;;5.15;3.88;;;;;;;16.52;84.16;96185.94;5018803;28;20221;-84
2021/08/24 06:33:54;;;;;;;5.95;4.38;;;;;;;16.54;84.52;96183.94;5036282;28;20218;-85
2021/08/24 06:36:22;;;;;;;4.95;4.32;;;;;;;16.55;85.19;96189.91;5035113;28;20218;-83
2021/08/24 06:38:49;;;;;;;4.68;4.28;;;;;;;16.49;85.18;96193.31;5039843;28;20206;-85
2021/08/24 06:41:17;;;;;;;4.97;4.47;;;;;;;16.43;84.84;96196.72;5035265;28;20217;-85
2021/08/24 06:43:44;;;;;;;6.30;4.03;;;;;;;16.45;85.29;96195.53;5035513;28;20401;-84
2021/08/24 06:46:11;;;;;;;5.72;4.38;;;;;;;16.45;85.77;96195.53;5018663;28;20223;-84
2021/08/24 06:48:37;;;;;;;5.82;4.55;;;;;;;16.42;86.16;96187.31;5015606;28;20203;-81
2021/08/24 06:51:05;;;;;;;5.38;4.60;;;;;;;16.35;85.85;96195.13;5028776;28;20228;-84
2021/08/24 06:53:32;;;;;;;6.65;4.97;;;;;;;16.30;85.39;96191.50;5035976;28;20222;-86
2021/08/24 06:55:59;;;;;;;5.30;4.88;;;;;;;16.20;86.87;96192.66;5036003;28;20221;-86
2021/08/24 06:58:25;;;;;;;4.38;4.07;;;;;;;16.25;87.16;96197.28;5035093;28;20206;-83
2021/08/24 07:00:52;;;;;;;7.43;5.35;;;;;;;16.23;87.67;96200.06;5051354;28;20201;-82
2021/08/24 07:03:18;;;;;;;5.05;4.60;;;;;;;16.32;87.54;96203.31;5046415;28;20200;-83
2021/08/24 07:08:33;;;;;;;4.90;4.50;;;;;;;16.31;85.82;96201.69;5034868;28;20213;-85
2021/08/24 07:10:59;;;;;;;4.68;4.18;;;;;;;16.28;86.06;96201.28;5032183;28;20577;-83
2021/08/24 07:13:27;;;;;;;5.25;4.45;;;;;;;16.29;86.70;96205.47;5015692;28;20222;-85
2021/08/24 07:15:54;;;;;;;4.47;4.10;;;;;;;16.23;87.12;96196.66;5015011;28;20261;-86
2021/08/24 07:18:21;;;;;;;4.80;4.40;;;;;;;16.16;88.21;96196.66;5015662;28;20629;-81
2021/08/24 07:20:49;;;;;;;3.92;3.60;;;;;;;16.26;88.22;96198.88;5015955;28;20207;-83
2021/08/24 07:23:16;;;;;;;4.22;3.72;;;;;;;16.21;88.52;96196.88;5036886;28;20700;-81
2021/08/24 07:25:45;;;;;;;4.25;3.55;;;;;;;16.20;87.33;96199.66;5054736;28;20232;-85
2021/08/24 07:28:12;;;;;;;3.50;3.20;;;;;;;16.25;86.85;96202.47;5053386;28;20201;-84
2021/08/24 07:30:40;;;;;;;3.67;3.38;;;;;;;16.32;87.39;96207.69;5042135;28;20233;-82
2021/08/24 07:33:07;;;;;;;3.75;3.45;;;;;;;16.35;87.01;96208.09;5033644;28;20259;-84
2021/08/24 07:35:33;;;;;;;3.58;3.28;;;;;;;16.40;86.24;96207.50;5027976;28;20255;-83
2021/08/24 07:38:03;;;;;;;4.03;3.60;;;;;;;16.28;85.31;96204.69;5020174;28;20194;-81
2021/08/24 07:40:31;;;;;;;3.90;3.30;;;;;;;16.37;85.70;96213.88;5033179;28;21082;-82
2021/08/24 07:42:59;;;;;;;4.53;4.20;;;;;;;16.28;87.85;96209.88;5033598;28;20585;-84
2021/08/24 07:45:26;;;;;;;4.13;3.75;;;;;;;16.30;88.15;96212.28;5043195;28;20224;-83
2021/08/24 07:47:52;;;;;;;3.97;3.55;;;;;;;16.43;87.37;96212.31;5054003;28;20204;-83
2021/08/24 07:50:19;;;;;;;4.28;3.50;;;;;;;16.49;85.89;96208.94;5032164;28;20201;-82
2021/08/24 07:52:46;;;;;;;4.25;3.95;;;;;;;16.48;85.23;96209.91;5016465;28;20565;-84
2021/08/24 07:55:12;;;;;;;6.05;3.90;;;;;;;16.48;85.64;96215.91;5014884;28;20222;-81
2021/08/24 07:57:39;;;;;;;7.07;4.32;;;;;;;16.45;85.77;96218.09;5029339;28;20202;-82
2021/08/24 08:00:08;;;;;;;4.43;4.13;;;;;;;16.49;85.71;96222.72;5034556;28;20216;-85
2021/08/24 08:02:35;;;;;;;4.13;3.78;;;;;;;16.53;85.85;96220.53;5034017;28;20194;-82
2021/08/24 08:05:02;;;;;;;4.65;4.25;;;;;;;16.45;85.98;96220.72;5032952;28;20222;-81
2021/08/24 08:07:28;;;;;;;4.70;4.30;;;;;;;16.36;86.69;96224.47;5034121;28;20205;-84
2021/08/24 08:09:55;;;;;;;5.30;4.80;;;;;;;16.36;86.53;96232.28;5049595;28;20205;-84
2021/08/24 08:12:22;;;;;;;4.97;4.53;;;;;;;16.39;86.72;96234.47;5025650;28;20854;-83
2021/08/24 08:14:48;;;;;;;5.05;4.63;;;;;;;16.40;87.91;96225.69;5020298;28;20213;-83
2021/08/24 08:17:17;;;;;;;4.93;4.53;;;;;;;16.39;87.57;96224.88;5032630;28;20209;-81
2021/08/24 08:19:43;;;;;;;4.95;4.55;;;;;;;16.39;87.58;96224.88;5040736;28;20198;-84
2021/08/24 08:22:11;;;;;;;5.63;5.03;;;;;;;16.38;88.05;96227.69;5052541;28;20917;-85
2021/08/24 08:24:39;;;;;;;5.70;5.20;;;;;;;16.32;88.18;96228.50;5013893;28;20218;-84
2021/08/24 08:27:06;;;;;;;6.13;5.55;;;;;;;16.35;87.96;96235.91;5012616;28;20211;-85
2021/08/24 08:29:33;;;;;;;5.90;5.45;;;;;;;16.44;88.29;96232.91;5015770;28;20198;-83
2021/08/24 08:32:05;;;;;;;6.00;5.40;;;;;;;16.51;87.89;96225.94;5043425;28;20206;-84
2021/08/24 08:34:33;;;;;;;5.75;5.22;;;;;;;16.63;87.70;96236.56;5032686;28;20775;-82
2021/08/24 08:36:59;;;;;;;5.68;5.07;;;;;;;16.67;86.60;96229.19;5027295;28;20217;-82
2021/08/24 08:39:26;;;;;;;6.40;5.10;;;;;;;16.66;86.91;96225.78;5031519;28;20206;-83
2021/08/24 08:42:13;;;;;;;5.45;4.95;;;;;;;16.73;86.44;96228.41;5033250;28;20289;-82
2021/08/24 08:44:51;;;;;;;4.80;4.40;;;;;;;16.74;85.93;96222.97;5019037;28;20621;-83
2021/08/24 08:47:30;;;;;;;5.30;4.75;;;;;;;16.83;85.34;96232.19;5030112;28;20197;-83
2021/08/24 08:50:05;;;;;;;4.95;4.55;;;;;;;16.76;86.33;96233.97;5049533;28;20762;-84
2021/08/24 08:52:39;;;;;;;4.97;4.47;;;;;;;16.78;84.96;96236.38;5037032;28;20202;-84
2021/08/24 08:55:11;;;;;;;4.93;4.53;;;;;;;16.66;83.80;96233.56;5016956;28;20226;-83
2021/08/24 08:57:43;;;;;;;5.30;4.90;;;;;;;16.55;85.80;96231.50;5032650;28;20750;-85
2021/08/24 09:00:17;;;;;;;5.28;4.72;;;;;;;16.48;86.16;96236.72;5032089;28;20197;-82
2021/08/24 09:02:49;;;;;;;5.07;4.65;;;;;;;16.53;86.38;96229.13;5030217;28;20198;-81
2021/08/24 09:05:20;;;;;;;5.65;5.15;;;;;;;16.54;87.50;96235.13;5013153;28;20215;-83
2021/08/24 09:07:50;;;;;;;5.20;4.80;;;;;;;16.57;88.31;96237.31;5013508;28;20214;-82
2021/08/24 09:10:21;;;;;;;6.30;5.70;;;;;;;16.71;87.20;96233.00;5013118;28;20199;-82
2021/08/24 09:12:53;;;;;;;5.63;5.03;;;;;;;16.72;86.86;96235.41;5012890;28;20207;-84
2021/08/24 09:15:27;;;;;;;7.30;5.57;;;;;;;16.55;84.55;96234.91;5032734;28;20225;-84
2021/08/24 09:17:54;;;;;;;5.40;5.00;;;;;;;16.50;86.40;96239.13;5033123;28;20197;-80
2021/08/24 09:20:25;;;;;;;5.65;5.15;;;;;;;16.52;87.20;96232.72;5033271;28;20198;-85
2021/08/24 09:22:52;;;;;;;6.18;5.68;;;;;;;16.61;85.99;96235.94;5045583;28;20209;-81
2021/08/24 09:25:26;;;;;;;6.00;5.50;;;;;;;16.71;87.19;96233.00;5053226;28;20225;-84
2021/08/24 09:27:59;;;;;;;6.13;5.60;;;;;;;16.72;86.33;96230.19;5053257;28;20201;-80
2021/08/24 09:30:26;;;;;;;5.90;5.40;;;;;;;16.74;87.70;96235.97;5042355;28;20241;-85
2021/08/24 09:32:58;;;;;;;5.40;5.00;;;;;;;16.79;87.29;96237.97;5031109;28;20669;-81
2021/08/24 09:35:31;;;;;;;9.73;4.50;;;;;;;16.91;87.46;96236.41;5025734;28;20348;-82
2021/08/24 09:38:01;;;;;;;5.43;4.65;;;;;;;16.97;85.29;96243.41;5032553;28;20209;-83
2021/08/24 09:40:36;;;;;;;5.10;4.70;;;;;;;16.95;85.32;96234.97;5032481;28;20198;-83
2021/08/24 09:43:20;;;;;;;4.40;4.10;;;;;;;16.98;85.63;96239.78;5020299;28;20217;-83
2021/08/24 09:45:55;;;;;;;4.70;4.30;;;;;;;17.07;84.06;96233.41;5013367;28;20224;-81
2021/08/24 09:48:22;;;;;;;5.40;4.38;;;;;;;17.08;83.65;96242.00;5018622;28;20194;-83
2021/08/24 09:50:50;;;;;;;5.53;4.22;;;;;;;17.01;83.81;96236.78;5019417;28;20194;-82
2021/08/24 09:53:29;;;;;;;5.75;4.15;;;;;;;17.00;83.07;96242.19;5036591;28;20213;-84
2021/08/24 09:55:57;;;;;;;4.60;4.00;;;;;;;17.00;82.23;96237.78;5037449;28;20230;-84
2021/08/24 09:58:32;;;;;;;4.20;3.90;;;;;;;16.98;82.00;96232.00;5057104;28;20570;-81
2021/08/24 10:01:02;;;;;;;4.28;3.88;;;;;;;17.03;81.33;96239.19;5056514;28;20223;-84
2021/08/24 10:03:32;;;;;;;5.00;3.75;;;;;;;17.10;81.80;96235.59;5056373;28;20292;-80
2021/08/24 10:06:06;;;;;;;3.90;3.60;;;;;;;17.17;80.66;96232.97;5056047;28;20233;-84
2021/08/24 10:08:35;;;;;;;4.07;3.67;;;;;;;17.17;78.20;96231.19;5056940;28;20239;-84
2021/08/24 10:11:13;;;;;;;4.10;3.80;;;;;;;17.19;80.37;96238.78;5055532;28;20202;-84
2021/08/24 10:13:41;;;;;;;3.75;3.45;;;;;;;17.20;81.84;96235.19;5056221;28;20201;-83
2021/08/24 10:16:12;;;;;;;3.40;3.20;;;;;;;17.20;78.85;96243.78;5056749;28;20229;-84
2021/08/24 10:18:41;;;;;;;3.55;3.25;;;;;;;17.16;79.00;96247.78;5056044;28;20204;-84
2021/08/24 10:21:13;;;;;;;3.47;3.17;;;;;;;17.17;79.39;96253.78;5056357;28;20201;-83
2021/08/24 10:23:49;;;;;;;5.63;3.20;;;;;;;17.12;79.68;96246.63;5056339;28;20208;-83
2021/08/24 10:26:23;;;;;;;3.80;2.90;;;;;;;17.06;78.86;96244.81;5056508;28;20851;-84
2021/08/24 10:28:52;;;;;;;3.17;2.97;;;;;;;17.10;78.21;96234.81;5056068;28;20819;-85
2021/08/24 10:31:31;;;;;;;3.05;2.85;;;;;;;17.19;79.96;96233.59;5038104;28;20211;-84
2021/08/24 10:34:01;;;;;;;3.50;3.22;;;;;;;17.48;79.65;96238.38;5029583;28;20205;-84
2021/08/24 10:36:34;;;;;;;3.58;3.33;;;;;;;17.61;80.33;96233.13;5035996;28;20234;-82
2021/08/24 10:39:04;;;;;;;4.75;3.25;;;;;;;17.94;78.86;96234.84;5036463;28;20202;-81
2021/08/24 10:41:38;;;;;;;3.60;3.28;;;;;;;18.14;75.92;96224.34;5028510;28;20202;-84
2021/08/24 10:44:18;;;;;;;4.20;3.42;;;;;;;18.09;76.68;96227.56;5015981;28;20577;-81
2021/08/24 10:46:51;;;;;;;4.10;3.50;;;;;;;18.18;74.90;96231.53;5016083;28;20212;-83
2021/08/24 10:49:17;;;;;;;3.15;2.95;;;;;;;18.29;76.54;96232.69;5015877;28;20365;-84
2021/08/24 10:51:54;;;;;;;3.72;3.22;;;;;;;18.41;74.51;96230.22;5026494;28;20194;-87
2021/08/24 10:54:59;;;;;;;3.58;3.25;;;;;;;18.52;73.65;96234.75;5056228;28;20216;-83
2021/08/24 10:57:53;;;;;;;3.50;3.20;;;;;;;18.54;74.88;96230.13;5047560;28;20213;-81
2021/08/24 11:00:51;;;;;;;3.50;3.20;;;;;;;18.57;74.18;96230.53;5054622;28;20200;-84
2021/08/24 11:03:51;;;;;;;3.40;3.10;;;;;;;18.53;73.22;96233.75;5033876;28;20225;-83
2021/08/24 11:06:27;;;;;;;3.47;2.90;;;;;;;18.63;74.63;96229.72;5037712;28;20245;-82
2021/08/24 11:09:05;;;;;;;3.08;2.70;;;;;;;18.84;72.98;96227.78;5038606;28;20210;-82
2021/08/24 11:11:44;;;;;;;3.10;2.90;;;;;;;18.94;71.64;96233.31;5034764;28;20217;-81
2021/08/24 11:14:24;;;;;;;3.70;2.90;;;;;;;18.79;69.29;96233.63;5016695;28;20210;-82
2021/08/24 11:16:59;;;;;;;4.47;3.05;;;;;;;18.70;71.40;96236.69;5017804;28;20222;-81
2021/08/24 11:19:42;;;;;;;2.80;2.60;;;;;;;18.75;71.55;96229.03;5018337;28;20202;-83
2021/08/24 11:22:22;;;;;;;3.38;3.15;;;;;;;18.76;68.45;96225.41;5018002;28;20206;-81
2021/08/24 11:24:57;;;;;;;3.00;2.70;;;;;;;18.86;69.22;96234.34;5017687;28;20222;-81
2021/08/24 11:27:33;;;;;;;2.42;2.30;;;;;;;19.11;69.75;96230.97;5018805;28;20202;-84
2021/08/24 11:30:03;;;;;;;2.70;2.50;;;;;;;19.32;69.82;96222.72;5024682;28;20200;-84
2021/08/24 11:32:33;;;;;;;3.90;2.78;;;;;;;19.26;67.65;96227.00;5039291;28;20198;-83
2021/08/24 11:35:05;;;;;;;2.78;2.58;;;;;;;19.31;68.57;96228.97;5037668;28;20241;-81
2021/08/24 11:37:36;;;;;;;2.97;2.78;;;;;;;19.15;70.44;96230.31;5037029;28;20198;-82
2021/08/24 11:40:07;;;;;;;2.70;2.47;;;;;;;19.14;68.65;96239.16;5034555;28;20206;-84
2021/08/24 11:42:42;;;;;;;2.65;2.40;;;;;;;19.08;68.34;96240.00;5030189;28;20218;-83
2021/08/24 11:45:17;;;;;;;3.97;2.60;;;;;;;18.98;67.25;96234.47;5019753;28;20213;-84
2021/08/24 11:47:51;;;;;;;2.63;2.42;;;;;;;18.90;68.86;96232.91;5036356;28;20289;-84
2021/08/24 11:50:22;;;;;;;2.75;2.55;;;;;;;18.98;69.16;96230.06;5014907;28;20207;-83